sensor_id;sensor_type;location;lat;lon;timestamp;temperature;humidity
17146;DHT22;8688;54.444;18.444;2023-04-23T00:00:22;5.40;99.90
17146;DHT22;8688;54.444;18.444;2023-04-23T00:02:52;5.40;99.90
17146;DHT22;8688;54.444;18.444;2023-04-23T00:05:21;5.30;99.90
17146;DHT22;8688;54.444;18.444;2023-04-23T00:07:52;5.30;99.90
17146;DHT22;8688;54.444;18.444;2023-04-23T00:10:23;5.20;99.90
17146;DHT22;8688;54.444;18.444;2023-04-23T00:12:51;5.20;99.90
17146;DHT22;8688;54.444;18.444;2023-04-23T00:15:19;5.20;99.90
17146;DHT22;8688;54.444;18.444;2023-04-23T00:17:47;5.20;99.90
17146;DHT22;8688;54.444;18.444;2023-04-23T00:20:15;5.20;99.90
17146;DHT22;8688;54.444;18.444;2023-04-23T00:22:42;5.20;99.90
17146;DHT22;8688;54.444;18.444;2023-04-23T00:25:10;5.20;99.90
17146;DHT22;8688;54.444;18.444;2023-04-23T00:27:39;5.20;99.90
17146;DHT22;8688;54.444;18.444;2023-04-23T00:30:07;5.10;99.90
17146;DHT22;8688;54.444;18.444;2023-04-23T00:32:35;5.10;99.90
17146;DHT22;8688;54.444;18.444;2023-04-23T00:35:02;5.10;99.90
17146;DHT22;8688;54.444;18.444;2023-04-23T00:37:30;5.10;99.90
17146;DHT22;8688;54.444;18.444;2023-04-23T00:39:57;5.00;99.90
17146;DHT22;8688;54.444;18.444;2023-04-23T00:42:25;5.00;99.90
17146;DHT22;8688;54.444;18.444;2023-04-23T00:44:54;5.00;99.90
17146;DHT22;8688;54.444;18.444;2023-04-23T00:47:22;5.00;99.90
17146;DHT22;8688;54.444;18.444;2023-04-23T00:49:50;4.90;99.90
17146;DHT22;8688;54.444;18.444;2023-04-23T00:52:20;4.90;99.90
17146;DHT22;8688;54.444;18.444;2023-04-23T00:54:47;4.80;99.90
17146;DHT22;8688;54.444;18.444;2023-04-23T00:57:15;4.80;99.90
17146;DHT22;8688;54.444;18.444;2023-04-23T00:59:43;4.80;99.90
17146;DHT22;8688;54.444;18.444;2023-04-23T01:02:12;4.80;99.90
17146;DHT22;8688;54.444;18.444;2023-04-23T01:04:40;4.80;99.90
17146;DHT22;8688;54.444;18.444;2023-04-23T01:07:09;4.80;99.90
17146;DHT22;8688;54.444;18.444;2023-04-23T01:09:37;4.90;99.90
17146;DHT22;8688;54.444;18.444;2023-04-23T01:12:05;4.90;99.90
17146;DHT22;8688;54.444;18.444;2023-04-23T01:14:33;5.00;99.90
17146;DHT22;8688;54.444;18.444;2023-04-23T01:17:01;5.10;99.90
17146;DHT22;8688;54.444;18.444;2023-04-23T01:19:30;5.10;99.90
17146;DHT22;8688;54.444;18.444;2023-04-23T01:22:00;5.00;99.90
17146;DHT22;8688;54.444;18.444;2023-04-23T01:24:30;4.80;99.90
17146;DHT22;8688;54.444;18.444;2023-04-23T01:26:58;4.80;99.90
17146;DHT22;8688;54.444;18.444;2023-04-23T01:29:27;4.80;99.90
17146;DHT22;8688;54.444;18.444;2023-04-23T01:31:56;4.80;99.90
17146;DHT22;8688;54.444;18.444;2023-04-23T01:34:24;4.90;99.90
17146;DHT22;8688;54.444;18.444;2023-04-23T01:36:51;4.90;99.90
17146;DHT22;8688;54.444;18.444;2023-04-23T01:39:19;4.90;99.90
17146;DHT22;8688;54.444;18.444;2023-04-23T01:41:49;4.90;99.90
17146;DHT22;8688;54.444;18.444;2023-04-23T01:44:16;4.90;99.90
17146;DHT22;8688;54.444;18.444;2023-04-23T01:46:44;4.80;99.90
17146;DHT22;8688;54.444;18.444;2023-04-23T01:49:11;4.80;99.90
17146;DHT22;8688;54.444;18.444;2023-04-23T01:51:39;4.70;99.90
17146;DHT22;8688;54.444;18.444;2023-04-23T01:54:06;4.80;99.90
17146;DHT22;8688;54.444;18.444;2023-04-23T01:56:34;4.90;99.90
17146;DHT22;8688;54.444;18.444;2023-04-23T01:59:03;5.10;99.90
17146;DHT22;8688;54.444;18.444;2023-04-23T02:01:42;5.20;99.90
17146;DHT22;8688;54.444;18.444;2023-04-23T02:04:11;5.30;99.90
17146;DHT22;8688;54.444;18.444;2023-04-23T02:06:39;5.30;99.90
17146;DHT22;8688;54.444;18.444;2023-04-23T02:09:07;5.20;99.90
17146;DHT22;8688;54.444;18.444;2023-04-23T02:11:34;5.10;99.90
17146;DHT22;8688;54.444;18.444;2023-04-23T02:14:04;5.00;99.90
17146;DHT22;8688;54.444;18.444;2023-04-23T02:16:32;4.90;99.90
17146;DHT22;8688;54.444;18.444;2023-04-23T02:19:00;4.90;99.90
17146;DHT22;8688;54.444;18.444;2023-04-23T02:21:27;4.80;99.90
17146;DHT22;8688;54.444;18.444;2023-04-23T02:23:55;4.60;99.90
17146;DHT22;8688;54.444;18.444;2023-04-23T02:26:22;4.60;99.90
17146;DHT22;8688;54.444;18.444;2023-04-23T02:28:50;4.60;99.90
17146;DHT22;8688;54.444;18.444;2023-04-23T02:31:19;4.60;99.90
17146;DHT22;8688;54.444;18.444;2023-04-23T02:33:47;4.60;99.90
17146;DHT22;8688;54.444;18.444;2023-04-23T02:36:14;4.60;99.90
17146;DHT22;8688;54.444;18.444;2023-04-23T02:38:42;4.70;99.90
17146;DHT22;8688;54.444;18.444;2023-04-23T02:41:10;4.60;99.90
17146;DHT22;8688;54.444;18.444;2023-04-23T02:43:37;4.60;99.90
17146;DHT22;8688;54.444;18.444;2023-04-23T02:46:05;4.70;99.90
17146;DHT22;8688;54.444;18.444;2023-04-23T02:48:37;4.70;99.90
17146;DHT22;8688;54.444;18.444;2023-04-23T02:51:07;4.70;99.90
17146;DHT22;8688;54.444;18.444;2023-04-23T02:53:35;4.70;99.90
17146;DHT22;8688;54.444;18.444;2023-04-23T02:56:03;4.70;99.90
17146;DHT22;8688;54.444;18.444;2023-04-23T02:58:30;4.70;99.90
17146;DHT22;8688;54.444;18.444;2023-04-23T03:00:58;4.70;99.90
17146;DHT22;8688;54.444;18.444;2023-04-23T03:03:27;4.70;99.90
17146;DHT22;8688;54.444;18.444;2023-04-23T03:05:58;4.70;99.90
17146;DHT22;8688;54.444;18.444;2023-04-23T03:08:25;4.60;99.90
17146;DHT22;8688;54.444;18.444;2023-04-23T03:10:53;4.50;99.90
17146;DHT22;8688;54.444;18.444;2023-04-23T03:13:20;4.40;99.90
17146;DHT22;8688;54.444;18.444;2023-04-23T03:15:48;4.40;99.90
17146;DHT22;8688;54.444;18.444;2023-04-23T03:18:16;4.40;99.90
17146;DHT22;8688;54.444;18.444;2023-04-23T03:20:43;4.50;99.90
17146;DHT22;8688;54.444;18.444;2023-04-23T03:23:12;4.60;99.90
17146;DHT22;8688;54.444;18.444;2023-04-23T03:25:40;4.60;99.90
17146;DHT22;8688;54.444;18.444;2023-04-23T03:28:07;4.50;99.90
17146;DHT22;8688;54.444;18.444;2023-04-23T03:30:35;4.50;99.90
17146;DHT22;8688;54.444;18.444;2023-04-23T03:33:03;4.40;99.90
17146;DHT22;8688;54.444;18.444;2023-04-23T03:35:30;4.30;99.90
17146;DHT22;8688;54.444;18.444;2023-04-23T03:37:58;4.30;99.90
17146;DHT22;8688;54.444;18.444;2023-04-23T03:40:26;4.30;99.90
17146;DHT22;8688;54.444;18.444;2023-04-23T03:42:54;4.40;99.90
17146;DHT22;8688;54.444;18.444;2023-04-23T03:45:23;4.40;99.90
17146;DHT22;8688;54.444;18.444;2023-04-23T03:47:50;4.50;99.90
17146;DHT22;8688;54.444;18.444;2023-04-23T03:50:17;4.50;99.90
17146;DHT22;8688;54.444;18.444;2023-04-23T03:52:45;4.60;99.90
17146;DHT22;8688;54.444;18.444;2023-04-23T03:55:12;4.80;99.90
17146;DHT22;8688;54.444;18.444;2023-04-23T03:57:41;4.90;99.90
17146;DHT22;8688;54.444;18.444;2023-04-23T04:00:10;5.00;99.90
17146;DHT22;8688;54.444;18.444;2023-04-23T04:02:37;5.10;99.90
17146;DHT22;8688;54.444;18.444;2023-04-23T04:05:06;5.20;99.90
17146;DHT22;8688;54.444;18.444;2023-04-23T04:07:34;5.20;99.90
17146;DHT22;8688;54.444;18.444;2023-04-23T04:10:03;5.30;99.90
17146;DHT22;8688;54.444;18.444;2023-04-23T04:12:30;5.30;99.90
17146;DHT22;8688;54.444;18.444;2023-04-23T04:14:59;5.40;99.90
17146;DHT22;8688;54.444;18.444;2023-04-23T04:17:27;5.40;99.90
17146;DHT22;8688;54.444;18.444;2023-04-23T04:19:55;5.50;99.90
17146;DHT22;8688;54.444;18.444;2023-04-23T04:22:22;5.50;99.90
17146;DHT22;8688;54.444;18.444;2023-04-23T04:24:50;5.50;99.90
17146;DHT22;8688;54.444;18.444;2023-04-23T04:27:18;5.60;99.90
17146;DHT22;8688;54.444;18.444;2023-04-23T04:29:45;5.70;99.90
17146;DHT22;8688;54.444;18.444;2023-04-23T04:32:14;5.70;99.90
17146;DHT22;8688;54.444;18.444;2023-04-23T04:34:42;5.80;99.90
17146;DHT22;8688;54.444;18.444;2023-04-23T04:37:09;5.80;99.90
17146;DHT22;8688;54.444;18.444;2023-04-23T04:39:37;5.80;99.90
17146;DHT22;8688;54.444;18.444;2023-04-23T04:42:05;5.90;99.90
17146;DHT22;8688;54.444;18.444;2023-04-23T04:44:33;6.00;99.90
17146;DHT22;8688;54.444;18.444;2023-04-23T04:47:02;6.00;99.90
17146;DHT22;8688;54.444;18.444;2023-04-23T04:49:31;6.00;99.90
17146;DHT22;8688;54.444;18.444;2023-04-23T04:51:58;6.10;99.90
17146;DHT22;8688;54.444;18.444;2023-04-23T04:54:26;6.10;99.90
17146;DHT22;8688;54.444;18.444;2023-04-23T04:56:53;6.20;99.90
17146;DHT22;8688;54.444;18.444;2023-04-23T04:59:21;6.30;99.90
17146;DHT22;8688;54.444;18.444;2023-04-23T05:01:48;6.30;99.90
17146;DHT22;8688;54.444;18.444;2023-04-23T05:04:15;6.40;99.90
17146;DHT22;8688;54.444;18.444;2023-04-23T05:06:44;6.50;99.90
17146;DHT22;8688;54.444;18.444;2023-04-23T05:09:12;6.60;99.90
17146;DHT22;8688;54.444;18.444;2023-04-23T05:11:40;6.70;99.90
17146;DHT22;8688;54.444;18.444;2023-04-23T05:14:07;6.70;99.90
17146;DHT22;8688;54.444;18.444;2023-04-23T05:16:35;6.80;99.90
17146;DHT22;8688;54.444;18.444;2023-04-23T05:19:03;6.90;99.90
17146;DHT22;8688;54.444;18.444;2023-04-23T05:21:31;7.00;99.90
17146;DHT22;8688;54.444;18.444;2023-04-23T05:24:00;7.10;99.90
17146;DHT22;8688;54.444;18.444;2023-04-23T05:26:27;7.20;99.90
17146;DHT22;8688;54.444;18.444;2023-04-23T05:28:54;7.30;99.90
17146;DHT22;8688;54.444;18.444;2023-04-23T05:31:22;7.40;99.90
17146;DHT22;8688;54.444;18.444;2023-04-23T05:33:50;7.50;99.90
17146;DHT22;8688;54.444;18.444;2023-04-23T05:36:17;7.60;99.90
17146;DHT22;8688;54.444;18.444;2023-04-23T05:38:45;7.70;99.90
17146;DHT22;8688;54.444;18.444;2023-04-23T05:41:14;7.90;99.90
17146;DHT22;8688;54.444;18.444;2023-04-23T05:43:42;8.00;99.90
17146;DHT22;8688;54.444;18.444;2023-04-23T05:46:10;8.10;99.90
17146;DHT22;8688;54.444;18.444;2023-04-23T05:48:37;8.20;99.90
17146;DHT22;8688;54.444;18.444;2023-04-23T05:51:05;8.40;99.90
17146;DHT22;8688;54.444;18.444;2023-04-23T05:53:32;8.60;99.90
17146;DHT22;8688;54.444;18.444;2023-04-23T05:56:00;8.70;99.90
17146;DHT22;8688;54.444;18.444;2023-04-23T05:58:29;8.80;99.90
17146;DHT22;8688;54.444;18.444;2023-04-23T06:00:57;8.90;99.90
17146;DHT22;8688;54.444;18.444;2023-04-23T06:03:25;9.00;99.90
17146;DHT22;8688;54.444;18.444;2023-04-23T06:05:53;9.10;99.90
17146;DHT22;8688;54.444;18.444;2023-04-23T06:08:20;9.20;99.90
17146;DHT22;8688;54.444;18.444;2023-04-23T06:10:48;9.40;99.90
17146;DHT22;8688;54.444;18.444;2023-04-23T06:13:16;9.50;99.90
17146;DHT22;8688;54.444;18.444;2023-04-23T06:15:45;9.60;99.90
17146;DHT22;8688;54.444;18.444;2023-04-23T06:18:12;9.80;99.90
17146;DHT22;8688;54.444;18.444;2023-04-23T06:20:40;9.90;99.90
17146;DHT22;8688;54.444;18.444;2023-04-23T06:23:08;10.10;99.90
17146;DHT22;8688;54.444;18.444;2023-04-23T06:25:35;10.20;99.90
17146;DHT22;8688;54.444;18.444;2023-04-23T06:28:02;10.30;99.90
17146;DHT22;8688;54.444;18.444;2023-04-23T06:30:30;10.40;99.90
17146;DHT22;8688;54.444;18.444;2023-04-23T06:33:00;10.60;99.90
17146;DHT22;8688;54.444;18.444;2023-04-23T06:35:29;10.60;99.90
17146;DHT22;8688;54.444;18.444;2023-04-23T06:37:56;10.70;99.90
17146;DHT22;8688;54.444;18.444;2023-04-23T06:40:24;10.90;99.90
17146;DHT22;8688;54.444;18.444;2023-04-23T06:42:51;11.00;99.90
17146;DHT22;8688;54.444;18.444;2023-04-23T06:45:19;11.10;99.90
17146;DHT22;8688;54.444;18.444;2023-04-23T06:47:46;11.20;99.90
17146;DHT22;8688;54.444;18.444;2023-04-23T06:50:16;11.30;99.90
17146;DHT22;8688;54.444;18.444;2023-04-23T06:52:43;11.40;99.90
17146;DHT22;8688;54.444;18.444;2023-04-23T06:55:11;11.60;99.90
17146;DHT22;8688;54.444;18.444;2023-04-23T06:57:38;11.70;99.90
17146;DHT22;8688;54.444;18.444;2023-04-23T07:00:07;11.80;99.90
17146;DHT22;8688;54.444;18.444;2023-04-23T07:02:35;11.80;99.90
17146;DHT22;8688;54.444;18.444;2023-04-23T07:05:03;11.90;99.90
17146;DHT22;8688;54.444;18.444;2023-04-23T07:07:32;12.10;99.90
17146;DHT22;8688;54.444;18.444;2023-04-23T07:10:02;12.30;99.90
17146;DHT22;8688;54.444;18.444;2023-04-23T07:12:30;12.50;99.90
17146;DHT22;8688;54.444;18.444;2023-04-23T07:14:57;12.60;99.90
17146;DHT22;8688;54.444;18.444;2023-04-23T07:17:25;12.80;99.90
17146;DHT22;8688;54.444;18.444;2023-04-23T07:19:52;12.90;99.90
17146;DHT22;8688;54.444;18.444;2023-04-23T07:22:19;13.00;99.90
17146;DHT22;8688;54.444;18.444;2023-04-23T07:24:49;13.10;99.90
17146;DHT22;8688;54.444;18.444;2023-04-23T07:27:16;13.20;99.90
17146;DHT22;8688;54.444;18.444;2023-04-23T07:29:44;13.30;99.90
17146;DHT22;8688;54.444;18.444;2023-04-23T07:32:11;13.40;99.90
17146;DHT22;8688;54.444;18.444;2023-04-23T07:34:39;13.50;99.90
17146;DHT22;8688;54.444;18.444;2023-04-23T07:37:07;13.60;99.90
17146;DHT22;8688;54.444;18.444;2023-04-23T07:39:34;13.70;99.90
17146;DHT22;8688;54.444;18.444;2023-04-23T07:42:03;13.90;99.90
17146;DHT22;8688;54.444;18.444;2023-04-23T07:44:30;13.90;99.90
17146;DHT22;8688;54.444;18.444;2023-04-23T07:46:58;14.00;99.90
17146;DHT22;8688;54.444;18.444;2023-04-23T07:49:25;14.20;99.90
17146;DHT22;8688;54.444;18.444;2023-04-23T07:51:53;14.40;99.90
17146;DHT22;8688;54.444;18.444;2023-04-23T07:54:20;14.50;99.90
17146;DHT22;8688;54.444;18.444;2023-04-23T07:56:48;14.60;99.90
17146;DHT22;8688;54.444;18.444;2023-04-23T07:59:17;14.60;99.90
17146;DHT22;8688;54.444;18.444;2023-04-23T08:01:45;14.60;99.90
17146;DHT22;8688;54.444;18.444;2023-04-23T08:04:13;14.70;99.90
17146;DHT22;8688;54.444;18.444;2023-04-23T08:06:41;15.00;99.90
17146;DHT22;8688;54.444;18.444;2023-04-23T08:09:11;15.10;99.90
17146;DHT22;8688;54.444;18.444;2023-04-23T08:11:39;15.20;99.90
17146;DHT22;8688;54.444;18.444;2023-04-23T08:14:06;15.30;99.90
17146;DHT22;8688;54.444;18.444;2023-04-23T08:16:35;15.40;99.90
17146;DHT22;8688;54.444;18.444;2023-04-23T08:19:03;15.60;99.90
17146;DHT22;8688;54.444;18.444;2023-04-23T08:21:31;15.60;99.90
17146;DHT22;8688;54.444;18.444;2023-04-23T08:23:58;15.80;99.90
17146;DHT22;8688;54.444;18.444;2023-04-23T08:26:27;16.00;99.90
17146;DHT22;8688;54.444;18.444;2023-04-23T08:28:55;16.10;99.90
17146;DHT22;8688;54.444;18.444;2023-04-23T08:31:22;16.30;99.90
17146;DHT22;8688;54.444;18.444;2023-04-23T08:33:51;16.30;99.90
17146;DHT22;8688;54.444;18.444;2023-04-23T08:36:19;16.40;99.90
17146;DHT22;8688;54.444;18.444;2023-04-23T08:38:46;16.40;99.90
17146;DHT22;8688;54.444;18.444;2023-04-23T08:41:17;16.60;99.90
17146;DHT22;8688;54.444;18.444;2023-04-23T08:43:51;16.80;99.90
17146;DHT22;8688;54.444;18.444;2023-04-23T08:46:19;17.00;99.90
17146;DHT22;8688;54.444;18.444;2023-04-23T08:48:47;17.00;99.90
17146;DHT22;8688;54.444;18.444;2023-04-23T08:51:21;17.00;99.90
17146;DHT22;8688;54.444;18.444;2023-04-23T08:53:55;17.10;99.90
17146;DHT22;8688;54.444;18.444;2023-04-23T08:56:23;17.20;99.90
17146;DHT22;8688;54.444;18.444;2023-04-23T08:58:51;17.30;99.90
17146;DHT22;8688;54.444;18.444;2023-04-23T09:01:19;17.30;99.90
17146;DHT22;8688;54.444;18.444;2023-04-23T09:03:47;17.50;99.90
17146;DHT22;8688;54.444;18.444;2023-04-23T09:06:14;17.60;99.90
17146;DHT22;8688;54.444;18.444;2023-04-23T09:08:44;17.80;99.90
17146;DHT22;8688;54.444;18.444;2023-04-23T09:11:12;17.90;99.90
17146;DHT22;8688;54.444;18.444;2023-04-23T09:13:41;18.00;99.90
17146;DHT22;8688;54.444;18.444;2023-04-23T09:16:09;18.00;99.90
17146;DHT22;8688;54.444;18.444;2023-04-23T09:18:37;18.20;99.90
17146;DHT22;8688;54.444;18.444;2023-04-23T09:21:05;18.30;99.90
17146;DHT22;8688;54.444;18.444;2023-04-23T09:23:33;18.40;99.90
17146;DHT22;8688;54.444;18.444;2023-04-23T09:26:07;18.50;99.90
17146;DHT22;8688;54.444;18.444;2023-04-23T09:28:34;18.50;99.90
17146;DHT22;8688;54.444;18.444;2023-04-23T09:31:04;18.40;99.90
17146;DHT22;8688;54.444;18.444;2023-04-23T09:33:34;18.50;99.90
17146;DHT22;8688;54.444;18.444;2023-04-23T09:36:07;18.60;99.90
17146;DHT22;8688;54.444;18.444;2023-04-23T09:38:35;18.60;99.90
17146;DHT22;8688;54.444;18.444;2023-04-23T09:41:22;18.70;99.90
17146;DHT22;8688;54.444;18.444;2023-04-23T09:43:52;18.80;99.90
17146;DHT22;8688;54.444;18.444;2023-04-23T09:46:32;18.90;99.90
17146;DHT22;8688;54.444;18.444;2023-04-23T09:49:01;19.00;99.90
17146;DHT22;8688;54.444;18.444;2023-04-23T09:51:29;19.10;99.90
17146;DHT22;8688;54.444;18.444;2023-04-23T09:53:57;19.10;99.90
17146;DHT22;8688;54.444;18.444;2023-04-23T09:56:26;19.20;99.90
17146;DHT22;8688;54.444;18.444;2023-04-23T09:58:53;19.20;99.90
17146;DHT22;8688;54.444;18.444;2023-04-23T10:01:27;19.20;99.90
17146;DHT22;8688;54.444;18.444;2023-04-23T10:03:55;19.20;99.90
17146;DHT22;8688;54.444;18.444;2023-04-23T10:06:29;19.30;99.90
17146;DHT22;8688;54.444;18.444;2023-04-23T10:08:57;19.30;99.60
17146;DHT22;8688;54.444;18.444;2023-04-23T10:11:26;19.40;98.20
17146;DHT22;8688;54.444;18.444;2023-04-23T10:13:54;19.50;98.90
17146;DHT22;8688;54.444;18.444;2023-04-23T10:16:22;19.50;98.60
17146;DHT22;8688;54.444;18.444;2023-04-23T10:18:51;19.60;98.90
17146;DHT22;8688;54.444;18.444;2023-04-23T10:21:24;19.60;99.50
17146;DHT22;8688;54.444;18.444;2023-04-23T10:23:54;19.60;99.40
17146;DHT22;8688;54.444;18.444;2023-04-23T10:26:25;19.60;99.10
17146;DHT22;8688;54.444;18.444;2023-04-23T10:28:54;19.70;99.60
17146;DHT22;8688;54.444;18.444;2023-04-23T10:31:23;19.80;99.90
17146;DHT22;8688;54.444;18.444;2023-04-23T10:33:51;19.90;98.30
17146;DHT22;8688;54.444;18.444;2023-04-23T10:36:20;20.00;99.90
17146;DHT22;8688;54.444;18.444;2023-04-23T10:38:51;20.00;97.60
17146;DHT22;8688;54.444;18.444;2023-04-23T10:41:22;20.10;97.60
17146;DHT22;8688;54.444;18.444;2023-04-23T10:43:54;20.20;98.70
17146;DHT22;8688;54.444;18.444;2023-04-23T10:46:32;20.30;99.00
17146;DHT22;8688;54.444;18.444;2023-04-23T10:49:07;20.40;97.90
17146;DHT22;8688;54.444;18.444;2023-04-23T10:51:35;20.50;97.80
17146;DHT22;8688;54.444;18.444;2023-04-23T10:54:03;20.50;96.20
17146;DHT22;8688;54.444;18.444;2023-04-23T10:56:30;20.50;95.80
17146;DHT22;8688;54.444;18.444;2023-04-23T10:58:59;20.50;93.80
17146;DHT22;8688;54.444;18.444;2023-04-23T11:01:28;20.50;94.00
17146;DHT22;8688;54.444;18.444;2023-04-23T11:03:56;20.60;93.30
17146;DHT22;8688;54.444;18.444;2023-04-23T11:06:49;20.70;91.00
17146;DHT22;8688;54.444;18.444;2023-04-23T11:09:37;20.70;90.70
17146;DHT22;8688;54.444;18.444;2023-04-23T11:12:07;20.80;86.20
17146;DHT22;8688;54.444;18.444;2023-04-23T11:14:45;20.70;86.80
17146;DHT22;8688;54.444;18.444;2023-04-23T11:17:13;20.80;84.30
17146;DHT22;8688;54.444;18.444;2023-04-23T11:20:08;20.90;88.40
17146;DHT22;8688;54.444;18.444;2023-04-23T11:22:37;21.00;87.20
17146;DHT22;8688;54.444;18.444;2023-04-23T11:25:08;21.00;81.10
17146;DHT22;8688;54.444;18.444;2023-04-23T11:27:38;21.10;80.30
17146;DHT22;8688;54.444;18.444;2023-04-23T11:30:12;21.10;82.90
17146;DHT22;8688;54.444;18.444;2023-04-23T11:32:40;21.30;82.70
17146;DHT22;8688;54.444;18.444;2023-04-23T11:35:08;21.40;82.50
17146;DHT22;8688;54.444;18.444;2023-04-23T11:37:38;21.50;75.70
17146;DHT22;8688;54.444;18.444;2023-04-23T11:40:08;21.40;77.90
17146;DHT22;8688;54.444;18.444;2023-04-23T11:42:40;21.40;75.70
17146;DHT22;8688;54.444;18.444;2023-04-23T11:45:20;21.40;70.90
17146;DHT22;8688;54.444;18.444;2023-04-23T11:47:51;21.50;74.10
17146;DHT22;8688;54.444;18.444;2023-04-23T11:50:22;21.60;73.20
17146;DHT22;8688;54.444;18.444;2023-04-23T11:52:50;21.60;74.90
17146;DHT22;8688;54.444;18.444;2023-04-23T11:55:18;21.80;73.10
17146;DHT22;8688;54.444;18.444;2023-04-23T11:57:47;22.00;71.60
17146;DHT22;8688;54.444;18.444;2023-04-23T12:00:18;22.00;65.20
17146;DHT22;8688;54.444;18.444;2023-04-23T12:02:50;22.00;66.40
17146;DHT22;8688;54.444;18.444;2023-04-23T12:05:20;22.00;64.40
17146;DHT22;8688;54.444;18.444;2023-04-23T12:07:48;22.00;61.90
17146;DHT22;8688;54.444;18.444;2023-04-23T12:10:17;22.00;63.80
17146;DHT22;8688;54.444;18.444;2023-04-23T12:12:49;22.00;63.50
17146;DHT22;8688;54.444;18.444;2023-04-23T12:15:18;22.10;65.00
17146;DHT22;8688;54.444;18.444;2023-04-23T12:17:49;22.20;64.70
17146;DHT22;8688;54.444;18.444;2023-04-23T12:20:20;22.30;62.60
17146;DHT22;8688;54.444;18.444;2023-04-23T12:22:48;22.30;64.40
17146;DHT22;8688;54.444;18.444;2023-04-23T12:25:15;22.50;63.80
17146;DHT22;8688;54.444;18.444;2023-04-23T12:27:44;22.50;63.90
17146;DHT22;8688;54.444;18.444;2023-04-23T12:30:12;22.50;67.40
17146;DHT22;8688;54.444;18.444;2023-04-23T12:32:41;22.60;67.40
17146;DHT22;8688;54.444;18.444;2023-04-23T12:35:09;22.60;62.00
17146;DHT22;8688;54.444;18.444;2023-04-23T12:37:37;22.60;63.10
17146;DHT22;8688;54.444;18.444;2023-04-23T12:40:05;22.70;63.10
17146;DHT22;8688;54.444;18.444;2023-04-23T12:42:33;22.80;62.30
17146;DHT22;8688;54.444;18.444;2023-04-23T12:45:07;22.80;62.10
17146;DHT22;8688;54.444;18.444;2023-04-23T12:47:38;22.90;64.10
17146;DHT22;8688;54.444;18.444;2023-04-23T12:50:08;23.00;64.20
17146;DHT22;8688;54.444;18.444;2023-04-23T12:52:36;23.00;64.40
17146;DHT22;8688;54.444;18.444;2023-04-23T12:55:04;23.10;63.10
17146;DHT22;8688;54.444;18.444;2023-04-23T12:57:32;23.10;63.00
17146;DHT22;8688;54.444;18.444;2023-04-23T12:59:59;23.10;62.70
17146;DHT22;8688;54.444;18.444;2023-04-23T13:02:27;23.10;64.70
17146;DHT22;8688;54.444;18.444;2023-04-23T13:04:54;23.10;62.50
17146;DHT22;8688;54.444;18.444;2023-04-23T13:07:27;23.10;60.80
17146;DHT22;8688;54.444;18.444;2023-04-23T13:09:54;23.00;59.10
17146;DHT22;8688;54.444;18.444;2023-04-23T13:12:22;23.10;61.00
17146;DHT22;8688;54.444;18.444;2023-04-23T13:14:49;23.10;59.20
17146;DHT22;8688;54.444;18.444;2023-04-23T13:17:17;23.20;59.90
17146;DHT22;8688;54.444;18.444;2023-04-23T13:19:44;23.30;60.00
17146;DHT22;8688;54.444;18.444;2023-04-23T13:22:11;23.40;61.30
17146;DHT22;8688;54.444;18.444;2023-04-23T13:24:40;23.40;58.70
17146;DHT22;8688;54.444;18.444;2023-04-23T13:27:08;23.40;59.80
17146;DHT22;8688;54.444;18.444;2023-04-23T13:29:37;23.60;60.60
17146;DHT22;8688;54.444;18.444;2023-04-23T13:32:05;23.70;59.10
17146;DHT22;8688;54.444;18.444;2023-04-23T13:34:33;23.80;59.20
17146;DHT22;8688;54.444;18.444;2023-04-23T13:37:01;23.70;54.60
17146;DHT22;8688;54.444;18.444;2023-04-23T13:39:30;23.70;55.90
17146;DHT22;8688;54.444;18.444;2023-04-23T13:42:08;23.80;55.70
17146;DHT22;8688;54.444;18.444;2023-04-23T13:44:47;23.90;53.80
17146;DHT22;8688;54.444;18.444;2023-04-23T13:47:15;23.90;53.10
17146;DHT22;8688;54.444;18.444;2023-04-23T13:49:42;23.90;52.00
17146;DHT22;8688;54.444;18.444;2023-04-23T13:52:09;24.00;55.10
17146;DHT22;8688;54.444;18.444;2023-04-23T13:54:37;24.00;53.10
17146;DHT22;8688;54.444;18.444;2023-04-23T13:57:06;23.90;53.60
17146;DHT22;8688;54.444;18.444;2023-04-23T13:59:34;23.80;52.40
17146;DHT22;8688;54.444;18.444;2023-04-23T14:02:02;23.90;54.60
17146;DHT22;8688;54.444;18.444;2023-04-23T14:04:29;24.10;54.70
17146;DHT22;8688;54.444;18.444;2023-04-23T14:06:57;24.10;54.10
17146;DHT22;8688;54.444;18.444;2023-04-23T14:09:24;24.10;52.20
17146;DHT22;8688;54.444;18.444;2023-04-23T14:11:52;24.00;50.90
17146;DHT22;8688;54.444;18.444;2023-04-23T14:14:21;24.00;52.10
17146;DHT22;8688;54.444;18.444;2023-04-23T14:16:49;24.10;53.20
17146;DHT22;8688;54.444;18.444;2023-04-23T14:19:17;24.00;51.10
17146;DHT22;8688;54.444;18.444;2023-04-23T14:21:44;24.00;51.40
17146;DHT22;8688;54.444;18.444;2023-04-23T14:24:16;24.00;49.90
17146;DHT22;8688;54.444;18.444;2023-04-23T14:26:44;24.20;52.50
17146;DHT22;8688;54.444;18.444;2023-04-23T14:29:19;24.30;51.70
17146;DHT22;8688;54.444;18.444;2023-04-23T14:31:51;24.20;52.10
17146;DHT22;8688;54.444;18.444;2023-04-23T14:34:18;24.20;51.90
17146;DHT22;8688;54.444;18.444;2023-04-23T14:36:46;24.10;52.60
17146;DHT22;8688;54.444;18.444;2023-04-23T14:39:14;24.10;52.70
17146;DHT22;8688;54.444;18.444;2023-04-23T14:41:54;24.10;50.10
17146;DHT22;8688;54.444;18.444;2023-04-23T14:44:22;24.00;50.00
17146;DHT22;8688;54.444;18.444;2023-04-23T14:46:52;24.10;51.60
17146;DHT22;8688;54.444;18.444;2023-04-23T14:49:20;24.10;50.10
17146;DHT22;8688;54.444;18.444;2023-04-23T14:52:00;24.10;49.70
17146;DHT22;8688;54.444;18.444;2023-04-23T14:55:01;24.00;51.30
17146;DHT22;8688;54.444;18.444;2023-04-23T14:57:32;24.10;50.70
17146;DHT22;8688;54.444;18.444;2023-04-23T15:00:38;24.10;50.40
17146;DHT22;8688;54.444;18.444;2023-04-23T15:03:19;24.30;51.10
17146;DHT22;8688;54.444;18.444;2023-04-23T15:06:22;24.30;49.40
17146;DHT22;8688;54.444;18.444;2023-04-23T15:12:36;23.50;51.10
17146;DHT22;8688;54.444;18.444;2023-04-23T15:15:35;23.10;51.80
17146;DHT22;8688;54.444;18.444;2023-04-23T15:18:48;23.00;52.80
17146;DHT22;8688;54.444;18.444;2023-04-23T15:21:21;23.00;53.60
17146;DHT22;8688;54.444;18.444;2023-04-23T15:27:04;23.10;55.00
17146;DHT22;8688;54.444;18.444;2023-04-23T15:29:33;22.90;53.60
17146;DHT22;8688;54.444;18.444;2023-04-23T15:32:04;22.80;53.90
17146;DHT22;8688;54.444;18.444;2023-04-23T15:34:32;22.70;54.10
17146;DHT22;8688;54.444;18.444;2023-04-23T15:37:25;22.60;53.50
17146;DHT22;8688;54.444;18.444;2023-04-23T15:39:55;22.40;54.50
17146;DHT22;8688;54.444;18.444;2023-04-23T15:49:00;22.10;56.40
17146;DHT22;8688;54.444;18.444;2023-04-23T15:51:31;22.00;58.20
17146;DHT22;8688;54.444;18.444;2023-04-23T15:53:59;22.00;57.10
17146;DHT22;8688;54.444;18.444;2023-04-23T15:56:27;21.80;57.10
17146;DHT22;8688;54.444;18.444;2023-04-23T15:58:55;21.70;58.20
17146;DHT22;8688;54.444;18.444;2023-04-23T16:01:23;21.70;57.70
17146;DHT22;8688;54.444;18.444;2023-04-23T16:03:52;21.50;59.20